METAR Data
IDs: Format: Raw Decoded Include TAF

Data at: 2225 UTC 24 Mar 2019

KPYX 242215Z AUTO 33004KT 10SM SCT050 SCT065 18/06 A3005 RMK AO2 T01760059
KPYX 242155Z AUTO 34005KT 10SM BKN050 18/06 A3006 RMK AO2 T01790057
KPYX 242135Z AUTO 02003KT 10SM SCT049 19/06 A3005 RMK AO2 T01860064
KPYX 242115Z AUTO 00000KT 10SM CLR 18/06 A3006 RMK AO2 T01820057
KPYX 242055Z AUTO 02003KT 10SM CLR 18/06 A3005 RMK AO2 T01800059
KPYX 242035Z AUTO 03006KT 10SM CLR 17/06 A3006 RMK AO2 T01730060
KPYX 242015Z AUTO 04008KT 10SM CLR 17/07 A3006 RMK AO2 T01730066
KPYX 241955Z AUTO 01005KT 10SM CLR 17/06 A3006 RMK AO2 T01680061
KPYX 241935Z AUTO 35005KT 10SM CLR 17/07 A3007 RMK AO2 T01650071
KPYX 241915Z AUTO 35007KT 10SM CLR 16/07 A3007 RMK AO2 T01620070
KPYX 241855Z AUTO 35005KT 10SM CLR 17/07 A3007 RMK AO2 T01650072
KPYX 241835Z AUTO 36009KT 10SM CLR 16/07 A3008 RMK AO2 T01610072
KPYX 241815Z AUTO 36008KT 10SM CLR 16/08 A3008 RMK AO2 T01560075
KPYX 241755Z AUTO 36008KT 10SM CLR 15/07 A3008 RMK AO2 T01500072 10150 20035
KPYX 241735Z AUTO 36009KT 10SM CLR 15/07 A3009 RMK AO2 T01450068
KPYX 241715Z AUTO 36011KT 10SM CLR 14/07 A3008 RMK AO2 T01420068
KPYX 241655Z AUTO 34009KT 10SM CLR 14/07 A3008 RMK AO2 T01400070
KPYX 241635Z AUTO 34009KT 10SM CLR 13/07 A3008 RMK AO2 T01300072
KPYX 241615Z AUTO 33009KT 10SM CLR 12/07 A3008 RMK AO2 T01220067
KPYX 241555Z AUTO 33008KT 10SM CLR 12/07 A3008 RMK AO2 T01150066
KPYX 241535Z AUTO 32008KT 10SM CLR 10/06 A3007 RMK AO2 T01010061
KPYX 241515Z AUTO 33008KT 10SM CLR 09/06 A3007 RMK AO2 T00940059
KPYX 241455Z AUTO 33010KT 10SM CLR 09/05 A3007 RMK AO2 T00860051
KPYX 241435Z AUTO 33009KT 10SM CLR 08/05 A3006 RMK AO2 T00780049
KPYX 241415Z AUTO 32008KT 10SM CLR 07/05 A3006 RMK AO2 T00680045
KPYX 241355Z AUTO 32008KT 10SM CLR 06/04 A3006 RMK AO2 T00560040
KPYX 241335Z AUTO 32007KT 10SM CLR 05/04 A3005 RMK AO2 T00460035
KPYX 241315Z AUTO 32008KT 10SM CLR 04/03 A3004 RMK AO2 T00370026
KPYX 241255Z AUTO 31007KT 10SM CLR 04/03 A3004 RMK AO2 T00360025
KPYX 241235Z AUTO 31006KT 10SM CLR 04/03 A3004 RMK AO2 T00380027
KPYX 241215Z AUTO 31007KT 10SM CLR 04/03 A3003 RMK AO2 T00360026
KPYX 241155Z AUTO 32007KT 10SM CLR 04/03 A3003 RMK AO2 T00360025 10075 20036
KPYX 241135Z AUTO 31006KT 10SM CLR 04/03 A3002 RMK AO2 T00380027
KPYX 241115Z AUTO 32007KT 10SM CLR 04/03 A3002 RMK AO2 T00370025
KPYX 241055Z AUTO 32006KT 10SM CLR 04/03 A3002 RMK AO2 T00420029
KPYX 241035Z AUTO 32006KT 10SM CLR 05/03 A3002 RMK AO2 T00470033
KPYX 241015Z AUTO 33006KT 10SM CLR 05/03 A3001 RMK AO2 T00480033
KPYX 240955Z AUTO 33007KT 10SM CLR 06/04 A3001 RMK AO2 T00550038
KPYX 240935Z AUTO 35007KT 10SM CLR 06/04 A3000 RMK AO2 T00550037
KPYX 240915Z AUTO 34008KT 10SM CLR 06/04 A3000 RMK AO2 T00600041
KPYX 240855Z AUTO 35007KT 10SM CLR 06/04 A3000 RMK AO2 T00590040
KPYX 240835Z AUTO 35007KT 10SM CLR 06/04 A3000 RMK AO2 T00620043
KPYX 240815Z AUTO 34008KT 10SM CLR 06/05 A3001 RMK AO2 T00610045
KPYX 240755Z AUTO 33007KT 10SM CLR 06/04 A3001 RMK AO2 T00590041
KPYX 240735Z AUTO 35005KT 10SM CLR 06/05 A3001 RMK AO2 T00640045
KPYX 240715Z AUTO 35007KT 10SM CLR 07/05 A3001 RMK AO2 T00670047
KPYX 240655Z AUTO 34008KT 10SM CLR 07/05 A3000 RMK AO2 T00670047
KPYX 240635Z AUTO 34007KT 10SM CLR 07/05 A3000 RMK AO2 T00660046
KPYX 240615Z AUTO 33006KT 10SM CLR 07/05 A3000 RMK AO2 T00690047
KPYX 240555Z AUTO 35005KT 10SM CLR 08/05 A3000 RMK AO2 T00750050 10179 20075 401860060
KPYX 240535Z AUTO 36007KT 10SM CLR 08/05 A2999 RMK AO2 T00800051
KPYX 240515Z AUTO 01007KT 10SM CLR 09/05 A2998 RMK AO2 T00850053
KPYX 240455Z AUTO 01007KT 10SM CLR 10/06 A2998 RMK AO2 T00950056
KPYX 240435Z AUTO 36012KT 10SM CLR 11/06 A2997 RMK AO2 T01070056
KPYX 240415Z AUTO 00000KT 10SM CLR 10/04 A2996 RMK AO2 T01030037
KPYX 240355Z AUTO 00000KT 10SM CLR 10/04 A2995 RMK AO2 T01030041
KPYX 240335Z AUTO 18004KT 10SM CLR 10/05 A2995 RMK AO2 T01020045
KPYX 240315Z AUTO 17006KT 10SM CLR 11/05 A2994 RMK AO2 T01080045
KPYX 240255Z AUTO 18005KT 10SM CLR 11/05 A2994 RMK AO2 T01070047
KPYX 240235Z AUTO 18007KT 10SM CLR 12/05 A2993 RMK AO2 T01150050
KPYX 240215Z AUTO 18008KT 10SM CLR 12/06 A2992 RMK AO2 T01150055
KPYX 240155Z AUTO 18006KT 10SM CLR 12/06 A2991 RMK AO2 T01240060
KPYX 240135Z AUTO 17007KT 10SM CLR 13/07 A2990 RMK AO2 T01260068
KPYX 240115Z AUTO 18008KT 10SM CLR 14/07 A2990 RMK AO2 T01370070
KPYX 240055Z AUTO 19004KT 10SM CLR 15/07 A2990 RMK AO2 T01490074
KPYX 240035Z AUTO 19006KT 10SM CLR 16/07 A2990 RMK AO2 T01640070
KPYX 240015Z AUTO 20006KT 10SM CLR 18/06 A2990 RMK AO2 T01750058
KPYX 232355Z AUTO 21009KT 10SM SCT085 18/04 A2990 RMK AO2 T01800043 10186 20140
KPYX 232335Z AUTO 22011KT 10SM SCT085 18/05 A2991 RMK AO2 T01770046
KPYX 232315Z AUTO 21011KT 10SM CLR 18/04 A2990 RMK AO2 T01840043
KPYX 232255Z AUTO 22011G14KT 10SM SCT070 SCT080 19/05 A2990 RMK AO2 T01850047
KPYX 232235Z AUTO 20009KT 10SM SCT080 18/06 A2990 RMK AO2 T01840057
KPYX 232215Z AUTO 23014KT 10SM CLR 19/06 A2991 RMK AO2 T01850062
KPYX 232155Z AUTO 22009KT 10SM CLR 18/06 A2991 RMK AO2 T01820056
KPYX 232135Z AUTO 24010KT 10SM CLR 18/06 A2991 RMK AO2 T01810064
KPYX 232115Z AUTO 22008KT 10SM CLR 18/05 A2991 RMK AO2 T01790052
KPYX 232055Z AUTO 24010KT 10SM CLR 18/07 A2991 RMK AO2 T01770070
KPYX 232035Z AUTO 24008KT 10SM CLR 17/05 A2991 RMK AO2 T01740053
KPYX 232015Z AUTO 25009KT 10SM CLR 17/06 A2992 RMK AO2 T01700064
KPYX 231955Z AUTO 28007KT 10SM CLR 17/06 A2992 RMK AO2 T01700061
KPYX 231935Z AUTO 22008KT 10SM CLR 17/07 A2992 RMK AO2 T01680065
KPYX 231915Z AUTO 19004KT 10SM CLR 16/07 A2992 RMK AO2 T01630072
KPYX 231855Z AUTO 23006KT 10SM CLR 16/07 A2993 RMK AO2 T01550071
KPYX 231835Z AUTO 21007KT 10SM CLR 15/07 A2994 RMK AO2 T01530070
KPYX 231815Z AUTO 20003KT 10SM CLR 14/06 A2994 RMK AO2 T01440063
KPYX 231755Z AUTO 22004KT 10SM CLR 14/07 A2995 RMK AO2 T01380072 10138 20060
KPYX 231735Z AUTO 19005KT 10SM CLR 13/07 A2995 RMK AO2 T01320068
KPYX 231715Z AUTO 00000KT 10SM CLR 13/06 A2996 RMK AO2 T01250060
KPYX 231655Z AUTO 00000KT 10SM CLR 12/06 A2996 RMK AO2 T01210058
KPYX 231635Z AUTO 20003KT 10SM CLR 12/06 A2997 RMK AO2 T01150058
KPYX 231615Z AUTO 19003KT 10SM CLR 11/07 A2998 RMK AO2 T01120066
KPYX 231555Z AUTO 22006KT 10SM CLR 11/07 A2998 RMK AO2 T01050068
KPYX 231535Z AUTO 23007KT 10SM CLR 10/07 A2999 RMK AO2 T00970069
KPYX 231515Z AUTO 22007KT 10SM CLR 09/07 A2999 RMK AO2 T00930069
KPYX 231455Z AUTO 22006KT 10SM CLR 08/07 A2998 RMK AO2 T00840068
KPYX 231435Z AUTO 22005KT 10SM CLR 08/07 A2998 RMK AO2 T00760069
KPYX 231415Z AUTO 21008KT 10SM CLR 07/07 A2998 RMK AO2 T00700065
KPYX 231355Z AUTO 23006KT 10SM CLR 07/06 A2997 RMK AO2 T00650060
KPYX 231335Z AUTO 22006KT 5SM SCT001 06/06 A2996 RMK AO2 T00610056
KPYX 231315Z AUTO 21004KT 1/4SM OVC001 06/06 A2995 RMK AO2 T00600055
KPYX 231255Z AUTO 22008KT 1/2SM OVC001 06/06 A2996 RMK AO2 T00640057
KPYX 231235Z AUTO 22008KT 1/2SM OVC001 07/07 A2995 RMK AO2 T00740068
KPYX 231215Z AUTO 23009KT 1/2SM OVC001 08/07 A2995 RMK AO2 T00780073
KPYX 231155Z AUTO 25010KT 1/2SM OVC001 08/08 A2994 RMK AO2 60001 70070 T00830077 10093 20081
KPYX 231135Z AUTO 22011KT 3/4SM OVC001 08/08 A2993 RMK AO2 T00830077
KPYX 231115Z AUTO 20011KT 3/4SM OVC001 08/08 A2991 RMK AO2 T00830077
KPYX 231055Z AUTO 20011KT 1/2SM OVC001 09/08 A2990 RMK AO2 T00850078
KPYX 231035Z AUTO 20011KT 1/2SM OVC001 09/08 A2990 RMK AO2 T00850080